Time;durP1;ratioP1;P1;durP2;ratioP2;P2;SDS_P1;SDS_P2;PMS_P1;PMS_P2;Temp;Humidity;BMP_temperature;BMP_pressure;BME280_temperature;BME280_humidity;BME280_pressure;Samples;Min_cycle;Max_cycle;Signal;HPM_P1;HPM_P2
2024/01/29 00:01:16;;;;;;;;;;;;;;;-5.61;100.00;99214.33;110313;1241;59693;-61
2024/01/29 00:03:50;;;;;;;;;;;;;;;-5.62;100.00;99216.54;110286;1242;71726;-61
2024/01/29 00:06:22;;;;;;;;;;;;;;;-5.65;100.00;99222.08;110327;1240;68513;-61
2024/01/29 00:08:53;;;;;;;;;;;;;;;-5.68;100.00;99220.48;110317;1239;67619;-61
2024/01/29 00:11:24;;;;;;;;;;;;;;;-5.72;100.00;99222.77;110317;1242;59692;-61
2024/01/29 00:13:55;;;;;;;;;;;;;;;-5.77;100.00;99227.27;110371;1242;59644;-61
2024/01/29 00:16:26;;;;;;;;;;;;;;;-5.81;100.00;99231.42;110297;1241;70593;-61
2024/01/29 00:18:55;;;;;;;;;;;;;;;-5.87;100.00;99234.52;110261;1241;69346;-61
2024/01/29 00:21:26;;;;;;;;;;;;;;;-5.93;100.00;99236.27;110307;1240;69319;-61
2024/01/29 00:24:00;;;;;;;;;;;;;;;-5.99;100.00;99238.88;110322;1241;59729;-61
2024/01/29 00:26:30;;;;;;;;;;;;;;;-6.03;100.00;99235.91;110308;1242;59601;-61
2024/01/29 00:28:59;;;;;;;;;;;;;;;-6.00;100.00;99238.02;110338;1240;71805;-61
2024/01/29 00:31:29;;;;;;;;;;;;;;;-5.95;100.00;99236.77;110191;1242;69125;-61
2024/01/29 00:34:00;;;;;;;;;;;;;;;-5.89;100.00;99238.05;110258;1241;69196;-62
2024/01/29 00:36:31;;;;;;;;;;;;;;;-5.85;100.00;99235.42;110309;1241;59748;-61
2024/01/29 00:39:06;;;;;;;;;;;;;;;-5.81;100.00;99230.40;110298;1240;59663;-61
2024/01/29 00:41:36;;;;;;;;;;;;;;;-5.79;100.00;99234.35;110259;1242;72002;-61
2024/01/29 00:44:07;;;;;;;;;;;;;;;-5.78;100.00;99238.77;110330;1240;69342;-61
2024/01/29 00:46:39;;;;;;;;;;;;;;;-5.79;100.00;99239.96;110282;1241;68606;-62
2024/01/29 00:49:09;;;;;;;;;;;;;;;-5.78;100.00;99238.27;110234;1241;59689;-60
2024/01/29 00:51:41;;;;;;;;;;;;;;;-5.78;100.00;99238.63;110296;1241;59678;-61
2024/01/29 00:54:13;;;;;;;;;;;;;;;-5.78;100.00;99239.98;110267;1241;71830;-60
2024/01/29 00:56:43;;;;;;;;;;;;;;;-5.81;100.00;99241.62;110240;1241;68366;-60
2024/01/29 00:59:13;;;;;;;;;;;;;;;-5.85;100.00;99239.15;110273;1240;69097;-60
2024/01/29 01:01:48;;;;;;;;;;;;;;;-5.87;100.00;99237.23;110256;1242;59754;-60
2024/01/29 01:04:20;;;;;;;;;;;;;;;-5.90;100.00;99240.24;110254;1240;59749;-60
2024/01/29 01:06:51;;;;;;;;;;;;;;;-5.92;100.00;99236.46;110266;1241;70436;-60
2024/01/29 01:09:22;;;;;;;;;;;;;;;-5.96;100.00;99234.69;110285;1240;69472;-60
2024/01/29 01:11:53;;;;;;;;;;;;;;;-6.01;100.00;99235.60;110261;1240;68708;-60
2024/01/29 01:14:24;;;;;;;;;;;;;;;-6.05;100.00;99238.05;110271;1239;59697;-60
2024/01/29 01:16:56;;;;;;;;;;;;;;;-6.06;100.00;99238.21;110278;1240;59696;-60
2024/01/29 01:19:26;;;;;;;;;;;;;;;-6.08;100.00;99233.42;110310;1240;71104;-60
2024/01/29 01:21:57;;;;;;;;;;;;;;;-6.09;100.00;99236.80;110296;1240;68344;-60
2024/01/29 01:24:32;;;;;;;;;;;;;;;-6.09;100.00;99236.44;110278;1241;69369;-62
2024/01/29 01:27:04;;;;;;;;;;;;;;;-6.09;100.00;99235.08;110323;1241;59725;-60
2024/01/29 01:29:37;;;;;;;;;;;;;;;-6.11;100.00;99234.86;110307;1241;59697;-60
2024/01/29 01:32:16;;;;;;;;;;;;;;;-6.11;100.00;99236.22;110285;1241;71040;-61
2024/01/29 01:34:53;;;;;;;;;;;;;;;-6.12;100.00;99233.32;110294;1241;68189;-60
2024/01/29 01:37:33;;;;;;;;;;;;;;;-6.10;100.00;99227.76;110258;1241;68327;-61
2024/01/29 01:40:08;;;;;;;;;;;;;;;-6.09;100.00;99228.46;110271;1242;59709;-62
2024/01/29 01:42:44;;;;;;;;;;;;;;;-6.13;100.00;99231.10;110284;1241;59741;-60
2024/01/29 01:45:19;;;;;;;;;;;;;;;-6.15;100.00;99229.02;110327;1241;70553;-60
2024/01/29 01:47:58;;;;;;;;;;;;;;;-6.20;100.00;99229.77;110295;1241;69644;-60
2024/01/29 01:50:29;;;;;;;;;;;;;;;-6.22;100.00;99230.04;110334;1242;68520;-60
2024/01/29 01:52:59;;;;;;;;;;;;;;;-6.26;100.00;99234.71;110333;1242;59748;-60
2024/01/29 01:55:30;;;;;;;;;;;;;;;-6.30;100.00;99233.60;110297;1241;59675;-60
2024/01/29 01:58:05;;;;;;;;;;;;;;;-6.34;100.00;99236.04;110273;1241;71035;-60
2024/01/29 02:00:37;;;;;;;;;;;;;;;-6.38;100.00;99233.73;110268;1241;69220;-60
2024/01/29 02:03:17;;;;;;;;;;;;;;;-6.41;100.00;99237.06;110164;1240;68490;-60
2024/01/29 02:05:48;;;;;;;;;;;;;;;-6.45;100.00;99238.83;110158;1242;59732;-60
2024/01/29 02:08:21;;;;;;;;;;;;;;;-6.49;100.00;99235.67;110197;1243;60167;-60
2024/01/29 02:10:55;;;;;;;;;;;;;;;-6.54;100.00;99239.79;110186;1244;71229;-60
2024/01/29 02:13:32;;;;;;;;;;;;;;;-6.59;100.00;99242.39;110163;1242;69291;-60
2024/01/29 02:16:10;;;;;;;;;;;;;;;-6.65;100.00;99242.60;110135;1243;69139;-60
2024/01/29 02:18:47;;;;;;;;;;;;;;;-6.69;100.00;99238.44;110157;1244;59670;-60
2024/01/29 02:21:18;;;;;;;;;;;;;;;-6.71;100.00;99241.59;110156;1240;59647;-60
2024/01/29 02:23:50;;;;;;;;;;;;;;;-6.76;100.00;99245.90;110186;1244;72386;-60
2024/01/29 02:26:22;;;;;;;;;;;;;;;-6.81;100.00;99245.08;110205;1240;68340;-60
2024/01/29 02:28:54;;;;;;;;;;;;;;;-6.85;100.00;99244.29;110181;1241;68373;-60
2024/01/29 02:31:26;;;;;;;;;;;;;;;-6.86;100.00;99241.05;110174;1240;59746;-61
2024/01/29 02:33:56;;;;;;;;;;;;;;;-6.86;100.00;99238.16;110202;1242;59732;-61
2024/01/29 02:36:33;;;;;;;;;;;;;;;-6.88;100.00;99247.63;110189;1243;70642;-61
2024/01/29 02:39:04;;;;;;;;;;;;;;;-6.91;100.00;99249.91;110249;1240;69753;-61
2024/01/29 02:41:34;;;;;;;;;;;;;;;-6.94;100.00;99247.95;110204;1240;68590;-62
2024/01/29 02:44:04;;;;;;;;;;;;;;;-6.96;100.00;99245.70;110257;1242;59717;-61
2024/01/29 02:46:34;;;;;;;;;;;;;;;-7.00;100.00;99249.17;110228;1242;59663;-62
2024/01/29 02:49:05;;;;;;;;;;;;;;;-7.02;100.00;99245.54;110197;1241;70651;-62
2024/01/29 02:51:35;;;;;;;;;;;;;;;-7.06;100.00;99250.68;110135;1242;68105;-62
2024/01/29 02:54:05;;;;;;;;;;;;;;;-7.09;100.00;99255.02;110211;1242;68336;-60
2024/01/29 02:56:35;;;;;;;;;;;;;;;-7.12;100.00;99252.07;110179;1243;59678;-61
2024/01/29 02:59:06;;;;;;;;;;;;;;;-7.13;100.00;99252.89;110159;1242;59699;-60
2024/01/29 03:01:39;;;;;;;;;;;;;;;-7.14;100.00;99256.08;110227;1243;71346;-60
2024/01/29 03:04:11;;;;;;;;;;;;;;;-7.17;100.00;99255.83;110279;1241;68607;-60
2024/01/29 03:06:42;;;;;;;;;;;;;;;-7.18;100.00;99254.27;110278;1240;68710;-60
2024/01/29 03:09:14;;;;;;;;;;;;;;;-7.20;100.00;99250.01;110256;1241;60088;-60
2024/01/29 03:11:45;;;;;;;;;;;;;;;-7.23;100.00;99251.27;110250;1242;59702;-60
2024/01/29 03:14:22;;;;;;;;;;;;;;;-7.24;100.00;99253.10;110272;1241;71271;-60
2024/01/29 03:16:55;;;;;;;;;;;;;;;-7.25;100.00;99252.90;110224;1240;68490;-60
2024/01/29 03:19:25;;;;;;;;;;;;;;;-7.29;100.00;99255.52;110243;1240;69410;-60
2024/01/29 03:21:56;;;;;;;;;;;;;;;-7.32;100.00;99260.01;110250;1242;59696;-60
2024/01/29 03:24:26;;;;;;;;;;;;;;;-7.34;100.00;99261.29;110279;1241;59691;-60
2024/01/29 03:26:57;;;;;;;;;;;;;;;-7.37;100.00;99259.17;110265;1241;72302;-60
2024/01/29 03:29:28;;;;;;;;;;;;;;;-7.42;100.00;99253.95;110237;1241;69289;-60
2024/01/29 03:32:00;;;;;;;;;;;;;;;-7.47;100.00;99249.77;110237;1241;69595;-60
2024/01/29 03:34:31;;;;;;;;;;;;;;;-7.50;100.00;99249.84;110253;1241;59719;-60
2024/01/29 03:37:03;;;;;;;;;;;;;;;-7.55;100.00;99255.45;110256;1242;59742;-60
2024/01/29 03:39:36;;;;;;;;;;;;;;;-7.58;100.00;99259.77;110244;1241;70972;-60
2024/01/29 03:42:08;;;;;;;;;;;;;;;-7.61;100.00;99255.64;110175;1244;69225;-61
2024/01/29 03:44:39;;;;;;;;;;;;;;;-7.63;100.00;99255.23;110252;1241;69131;-60
2024/01/29 03:47:11;;;;;;;;;;;;;;;-7.64;100.00;99258.06;110292;1241;59740;-60
2024/01/29 03:49:44;;;;;;;;;;;;;;;-7.67;100.00;99259.36;110294;1241;59675;-60
2024/01/29 03:52:16;;;;;;;;;;;;;;;-7.67;100.00;99261.70;110285;1241;71426;-60
2024/01/29 03:54:46;;;;;;;;;;;;;;;-7.68;100.00;99259.47;110265;1241;69437;-60
2024/01/29 03:57:17;;;;;;;;;;;;;;;-7.70;100.00;99261.29;110281;1242;69108;-61
2024/01/29 03:59:48;;;;;;;;;;;;;;;-7.71;100.00;99264.15;110280;1241;60171;-60
2024/01/29 04:02:21;;;;;;;;;;;;;;;-7.73;100.00;99265.78;110279;1241;59748;-60
2024/01/29 04:04:52;;;;;;;;;;;;;;;-7.74;100.00;99270.81;110278;1241;71530;-60
2024/01/29 04:07:24;;;;;;;;;;;;;;;-7.74;100.00;99272.86;110285;1241;67533;-60
2024/01/29 04:09:56;;;;;;;;;;;;;;;-7.73;100.00;99279.15;110273;1241;69437;-60
2024/01/29 04:12:27;;;;;;;;;;;;;;;-7.72;100.00;99280.52;110285;1241;59696;-60
2024/01/29 04:14:59;;;;;;;;;;;;;;;-7.72;100.00;99283.09;110176;1243;59681;-60
2024/01/29 04:17:31;;;;;;;;;;;;;;;-7.73;100.00;99281.86;110316;1241;71473;-60
2024/01/29 04:20:01;;;;;;;;;;;;;;;-7.74;100.00;99284.88;110299;1241;69698;-60
2024/01/29 04:22:34;;;;;;;;;;;;;;;-7.77;100.00;99281.23;110282;1241;68717;-60
2024/01/29 04:25:06;;;;;;;;;;;;;;;-7.79;100.00;99282.18;110293;1242;59681;-60
2024/01/29 04:27:38;;;;;;;;;;;;;;;-7.80;100.00;99277.77;110289;1241;59650;-60
2024/01/29 04:30:10;;;;;;;;;;;;;;;-7.82;100.00;99280.58;110323;1239;71442;-60
2024/01/29 04:32:40;;;;;;;;;;;;;;;-7.81;100.00;99286.33;110302;1241;68493;-60
2024/01/29 04:35:11;;;;;;;;;;;;;;;-7.80;100.00;99287.25;110325;1241;69763;-60
2024/01/29 04:37:42;;;;;;;;;;;;;;;-7.79;100.00;99288.13;110269;1241;59744;-60
2024/01/29 04:40:12;;;;;;;;;;;;;;;-7.74;100.00;99285.72;110290;1243;59678;-61
2024/01/29 04:42:45;;;;;;;;;;;;;;;-7.70;100.00;99288.38;110344;1240;71237;-61
2024/01/29 04:45:16;;;;;;;;;;;;;;;-7.70;100.00;99287.88;110322;1241;69815;-62
2024/01/29 04:47:46;;;;;;;;;;;;;;;-7.72;100.00;99294.94;110338;1241;69295;-61
2024/01/29 04:50:17;;;;;;;;;;;;;;;-7.75;100.00;99299.75;110282;1239;59749;-61
2024/01/29 04:52:48;;;;;;;;;;;;;;;-7.79;100.00;99303.70;110319;1242;59700;-61
2024/01/29 04:55:18;;;;;;;;;;;;;;;-7.83;100.00;99303.56;110318;1241;70886;-63
2024/01/29 04:57:48;;;;;;;;;;;;;;;-7.88;100.00;99305.27;110330;1242;69100;-60
2024/01/29 05:00:19;;;;;;;;;;;;;;;-7.92;100.00;99308.02;110264;1241;69113;-61
2024/01/29 05:02:49;;;;;;;;;;;;;;;-7.95;100.00;99312.17;110291;1241;59731;-60
2024/01/29 05:05:21;;;;;;;;;;;;;;;-7.97;100.00;99313.63;110346;1243;59804;-61
2024/01/29 05:07:51;;;;;;;;;;;;;;;-7.99;100.00;99314.59;110319;1242;71391;-60
2024/01/29 05:10:22;;;;;;;;;;;;;;;-8.03;100.00;99310.91;110290;1241;68976;-61
2024/01/29 05:12:51;;;;;;;;;;;;;;;-8.06;100.00;99310.98;110201;1244;69233;-61
2024/01/29 05:15:21;;;;;;;;;;;;;;;-8.08;100.00;99307.21;110303;1240;59727;-59
2024/01/29 05:17:52;;;;;;;;;;;;;;;-8.10;100.00;99312.54;110318;1240;59702;-60
2024/01/29 05:20:23;;;;;;;;;;;;;;;-8.12;100.00;99310.45;110311;1241;71848;-60
2024/01/29 05:22:54;;;;;;;;;;;;;;;-8.13;100.00;99313.11;110374;1241;69798;-61
2024/01/29 05:25:24;;;;;;;;;;;;;;;-8.15;100.00;99317.28;110318;1241;69331;-60
2024/01/29 05:27:54;;;;;;;;;;;;;;;-8.17;100.00;99319.78;110289;1241;59705;-61
2024/01/29 05:30:24;;;;;;;;;;;;;;;-8.16;100.00;99318.61;110295;1241;59655;-61
2024/01/29 05:32:54;;;;;;;;;;;;;;;-8.17;100.00;99320.45;110351;1241;71231;-60
2024/01/29 05:35:24;;;;;;;;;;;;;;;-8.17;100.00;99319.94;110358;1241;68628;-62
2024/01/29 05:37:54;;;;;;;;;;;;;;;-8.16;100.00;99320.14;110163;1242;68566;-62
2024/01/29 05:40:25;;;;;;;;;;;;;;;-8.14;100.00;99324.60;110326;1242;59745;-60
2024/01/29 05:42:55;;;;;;;;;;;;;;;-8.12;100.00;99323.14;110273;1241;59738;-62
2024/01/29 05:45:25;;;;;;;;;;;;;;;-8.13;100.00;99328.02;110298;1241;71969;-62
2024/01/29 05:47:55;;;;;;;;;;;;;;;-8.14;100.00;99331.17;110270;1242;69426;-60
2024/01/29 05:50:25;;;;;;;;;;;;;;;-8.18;100.00;99333.96;110238;1239;69287;-60
2024/01/29 05:52:55;;;;;;;;;;;;;;;-8.21;100.00;99336.91;110294;1241;59668;-60
2024/01/29 05:55:25;;;;;;;;;;;;;;;-8.23;100.00;99341.42;110253;1241;59741;-60
2024/01/29 05:57:55;;;;;;;;;;;;;;;-8.26;100.00;99335.23;110343;1241;71217;-62
2024/01/29 06:00:24;;;;;;;;;;;;;;;-8.27;100.00;99332.66;110305;1243;69259;-60
2024/01/29 06:02:54;;;;;;;;;;;;;;;-8.27;100.00;99331.66;110304;1242;70083;-60
2024/01/29 06:05:24;;;;;;;;;;;;;;;-8.27;100.00;99330.45;110291;1242;59743;-61
2024/01/29 06:07:55;;;;;;;;;;;;;;;-8.26;100.00;99336.08;110301;1243;59682;-60
2024/01/29 06:10:24;;;;;;;;;;;;;;;-8.24;100.00;99340.01;110255;1241;72122;-61
2024/01/29 06:12:54;;;;;;;;;;;;;;;-8.23;100.00;99345.31;110266;1241;68502;-60
2024/01/29 06:15:26;;;;;;;;;;;;;;;-8.19;100.00;99344.56;110241;1249;69884;-61
2024/01/29 06:17:55;;;;;;;;;;;;;;;-8.15;100.00;99344.36;110241;1241;59737;-61
2024/01/29 06:20:25;;;;;;;;;;;;;;;-8.09;100.00;99343.20;110263;1241;59663;-61
2024/01/29 06:22:54;;;;;;;;;;;;;;;-8.01;100.00;99339.23;110265;1241;71359;-60
2024/01/29 06:25:23;;;;;;;;;;;;;;;-7.97;100.00;99331.08;110236;1242;69321;-61
2024/01/29 06:27:52;;;;;;;;;;;;;;;-7.90;100.00;99329.41;110263;1241;69687;-61
2024/01/29 06:30:22;;;;;;;;;;;;;;;-7.83;100.00;99333.20;110260;1241;59723;-61
2024/01/29 06:32:52;;;;;;;;;;;;;;;-7.74;100.00;99335.33;110263;1239;59744;-61
2024/01/29 06:35:22;;;;;;;;;;;;;;;-7.67;100.00;99339.44;110303;1240;71394;-61
2024/01/29 06:37:51;;;;;;;;;;;;;;;-7.60;100.00;99340.98;110273;1241;68483;-61
2024/01/29 06:40:26;;;;;;;;;;;;;;;-7.52;100.00;99340.57;110256;1241;69148;-61
2024/01/29 06:42:57;;;;;;;;;;;;;;;-7.40;100.00;99339.88;110265;1243;59728;-62
2024/01/29 06:45:28;;;;;;;;;;;;;;;-7.30;100.00;99346.96;110255;1241;59737;-61
2024/01/29 06:47:58;;;;;;;;;;;;;;;-7.20;100.00;99350.31;110275;1242;70611;-61
2024/01/29 06:50:28;;;;;;;;;;;;;;;-7.09;100.00;99350.42;110261;1242;69815;-61
2024/01/29 06:52:58;;;;;;;;;;;;;;;-7.00;100.00;99352.23;110273;1242;69153;-61
2024/01/29 06:55:27;;;;;;;;;;;;;;;-6.89;100.00;99353.36;110266;1249;59753;-61
2024/01/29 06:57:57;;;;;;;;;;;;;;;-6.77;100.00;99357.44;110301;1241;59624;-61
2024/01/29 07:00:27;;;;;;;;;;;;;;;-6.63;100.00;99357.80;110279;1248;70845;-61
2024/01/29 07:02:56;;;;;;;;;;;;;;;-6.47;100.00;99364.17;110318;1243;67906;-61
2024/01/29 07:05:25;;;;;;;;;;;;;;;-6.20;100.00;99362.30;110215;1241;68362;-61
2024/01/29 07:07:54;;;;;;;;;;;;;;;-5.70;100.00;99349.88;110280;1243;59704;-61
2024/01/29 07:10:24;;;;;;;;;;;;;;;-5.03;100.00;99351.65;110266;1241;59708;-61
2024/01/29 07:12:54;;;;;;;;;;;;;;;-4.37;100.00;99353.59;110286;1242;71444;-61
2024/01/29 07:15:23;;;;;;;;;;;;;;;-3.66;100.00;99352.19;110234;1242;67488;-61
2024/01/29 07:17:52;;;;;;;;;;;;;;;-2.99;100.00;99355.15;110243;1243;69898;-62
2024/01/29 07:20:21;;;;;;;;;;;;;;;-2.31;100.00;99358.45;110182;1241;59739;-62
2024/01/29 07:22:54;;;;;;;;;;;;;;;-1.72;100.00;99350.41;110182;1243;59731;-62
2024/01/29 07:25:26;;;;;;;;;;;;;;;-1.43;98.38;99348.55;110327;1243;70811;-62
2024/01/29 07:27:56;;;;;;;;;;;;;;;-0.83;96.97;99353.13;110288;1243;69224;-62
2024/01/29 07:30:25;;;;;;;;;;;;;;;-0.07;100.00;99359.80;110238;1245;69290;-62
2024/01/29 07:33:04;;;;;;;;;;;;;;;0.51;100.00;99362.71;110292;1240;59708;-62
2024/01/29 07:35:33;;;;;;;;;;;;;;;1.01;100.00;99362.27;110263;1243;59745;-62
2024/01/29 07:38:03;;;;;;;;;;;;;;;1.45;100.00;99366.54;110267;1239;70651;-62
2024/01/29 07:40:34;;;;;;;;;;;;;;;1.80;98.11;99366.51;110273;1241;69241;-62
2024/01/29 07:43:03;;;;;;;;;;;;;;;1.90;81.90;99360.25;110296;1242;69150;-62
2024/01/29 07:45:33;;;;;;;;;;;;;;;1.98;76.80;99362.43;110346;1241;59649;-62
2024/01/29 07:48:04;;;;;;;;;;;;;;;2.34;75.01;99360.94;110307;1241;59680;-62
2024/01/29 07:50:33;;;;;;;;;;;;;;;2.90;82.47;99366.77;110346;1242;71941;-62
2024/01/29 07:53:03;;;;;;;;;;;;;;;3.57;93.12;99378.37;110183;1243;69803;-63
2024/01/29 07:55:33;;;;;;;;;;;;;;;3.78;78.81;99379.27;110236;1242;69902;-63
2024/01/29 07:58:03;;;;;;;;;;;;;;;4.08;72.94;99375.56;110259;1243;59676;-60
2024/01/29 08:00:33;;;;;;;;;;;;;;;4.17;63.81;99376.99;110290;1241;59676;-62
2024/01/29 08:03:03;;;;;;;;;;;;;;;4.15;63.11;99381.49;110495;1243;71951;-61
2024/01/29 08:05:34;;;;;;;;;;;;;;;4.34;63.46;99384.28;110464;1241;69924;-61
2024/01/29 08:08:03;;;;;;;;;;;;;;;4.32;61.84;99386.23;110447;1241;69360;-61
2024/01/29 08:10:33;;;;;;;;;;;;;;;4.71;63.93;99383.85;110367;1248;59731;-61
2024/01/29 08:13:04;;;;;;;;;;;;;;;5.27;62.05;99384.00;110371;1242;59660;-61
2024/01/29 08:15:33;;;;;;;;;;;;;;;5.56;56.39;99388.07;110360;1238;71347;-61
2024/01/29 08:18:03;;;;;;;;;;;;;;;5.94;56.36;99383.80;110351;1242;68478;-61
2024/01/29 08:20:51;;;;;;;;;;;;;;;5.93;53.25;99381.55;110446;1242;69243;-61
2024/01/29 08:23:23;;;;;;;;;;;;;;;6.56;54.85;99381.12;110482;1242;59667;-61
2024/01/29 08:25:52;;;;;;;;;;;;;;;6.51;56.15;99385.01;110418;1242;59659;-61
2024/01/29 08:28:24;;;;;;;;;;;;;;;7.42;58.05;99379.65;110309;1239;70644;-60
2024/01/29 08:30:55;;;;;;;;;;;;;;;7.68;54.94;99375.41;110336;1244;69817;-63
2024/01/29 08:33:25;;;;;;;;;;;;;;;7.46;50.07;99375.20;110444;1241;69242;-61
2024/01/29 08:35:55;;;;;;;;;;;;;;;7.30;49.92;99369.58;110377;1242;59618;-62
2024/01/29 08:38:25;;;;;;;;;;;;;;;7.77;52.39;99375.67;110355;1240;59683;-61
2024/01/29 08:40:55;;;;;;;;;;;;;;;8.11;50.58;99378.42;110462;1242;70688;-61
2024/01/29 08:43:24;;;;;;;;;;;;;;;7.93;49.66;99378.48;110385;1238;68712;-62
2024/01/29 08:45:53;;;;;;;;;;;;;;;7.75;47.21;99381.26;110350;1241;70000;-62
2024/01/29 08:48:23;;;;;;;;;;;;;;;7.76;48.05;99382.13;110350;1242;59639;-61
2024/01/29 08:50:52;;;;;;;;;;;;;;;7.99;46.37;99383.49;110356;1242;59634;-61
2024/01/29 08:53:25;;;;;;;;;;;;;;;8.66;48.98;99384.99;110426;1243;71977;-61
2024/01/29 08:55:53;;;;;;;;;;;;;;;9.44;47.29;99391.16;110390;1242;69839;-61
2024/01/29 08:58:22;;;;;;;;;;;;;;;9.10;44.84;99393.00;110292;1242;69238;-61
2024/01/29 09:00:54;;;;;;;;;;;;;;;8.75;43.06;99390.44;110253;1241;59729;-62
2024/01/29 09:03:27;;;;;;;;;;;;;;;8.81;43.95;99392.13;110295;1241;59684;-62
2024/01/29 09:05:56;;;;;;;;;;;;;;;8.93;42.81;99389.99;110399;1239;70416;-62
2024/01/29 09:08:27;;;;;;;;;;;;;;;9.15;44.12;99391.81;110487;1248;68217;-62
2024/01/29 09:10:57;;;;;;;;;;;;;;;9.90;43.42;99388.34;110426;1238;69849;-62
2024/01/29 09:13:26;;;;;;;;;;;;;;;9.32;42.56;99389.50;110318;1241;59674;-62
2024/01/29 09:15:59;;;;;;;;;;;;;;;9.90;41.85;99389.59;110482;1241;59744;-62
2024/01/29 09:18:28;;;;;;;;;;;;;;;10.42;41.76;99385.44;110406;1238;71889;-61
2024/01/29 09:20:57;;;;;;;;;;;;;;;10.34;41.19;99384.91;110383;1241;69726;-61
2024/01/29 09:23:29;;;;;;;;;;;;;;;10.56;40.97;99385.74;110386;1242;69830;-61
2024/01/29 09:25:59;;;;;;;;;;;;;;;10.97;42.71;99385.75;110403;1241;59737;-60
2024/01/29 09:28:27;;;;;;;;;;;;;;;11.10;39.81;99381.53;110450;1242;59711;-61
2024/01/29 09:30:59;;;;;;;;;;;;;;;10.70;40.06;99379.25;110344;1242;71336;-61
2024/01/29 09:33:28;;;;;;;;;;;;;;;10.07;41.23;99373.77;110362;1242;69661;-62
2024/01/29 09:35:58;;;;;;;;;;;;;;;10.15;40.52;99376.05;110332;1238;67472;-63
2024/01/29 09:38:27;;;;;;;;;;;;;;;10.25;39.93;99373.20;110334;1244;59675;-61
2024/01/29 09:40:57;;;;;;;;;;;;;;;10.22;40.29;99378.08;110433;1241;59680;-61
2024/01/29 09:43:27;;;;;;;;;;;;;;;10.58;39.64;99376.09;110366;1241;70823;-61
2024/01/29 09:45:57;;;;;;;;;;;;;;;10.80;39.37;99374.61;110347;1241;69806;-61
2024/01/29 09:48:26;;;;;;;;;;;;;;;10.48;38.37;99372.10;110316;1244;69766;-62
2024/01/29 09:51:00;;;;;;;;;;;;;;;10.46;39.13;99369.76;110358;1240;59689;-61
2024/01/29 09:53:31;;;;;;;;;;;;;;;10.63;39.13;99367.30;110376;1248;59630;-60
2024/01/29 09:56:00;;;;;;;;;;;;;;;11.77;37.66;99368.21;110363;1238;71419;-61
2024/01/29 09:58:30;;;;;;;;;;;;;;;12.40;37.16;99365.91;110311;1243;70048;-63
2024/01/29 10:01:03;;;;;;;;;;;;;;;11.78;35.16;99359.44;110253;1238;68483;-63
2024/01/29 10:03:34;;;;;;;;;;;;;;;12.37;35.59;99357.15;110417;1243;59744;-61
2024/01/29 10:06:04;;;;;;;;;;;;;;;12.91;36.59;99361.96;110444;1240;59709;-62
2024/01/29 10:08:33;;;;;;;;;;;;;;;12.11;35.23;99360.21;110476;1241;72008;-63
2024/01/29 10:11:02;;;;;;;;;;;;;;;12.77;35.16;99362.64;110373;1242;69865;-60
2024/01/29 10:13:32;;;;;;;;;;;;;;;12.45;33.91;99355.66;110383;1242;69988;-61
2024/01/29 10:16:01;;;;;;;;;;;;;;;12.06;34.52;99358.29;110352;1238;60140;-61
2024/01/29 10:18:31;;;;;;;;;;;;;;;11.68;34.69;99359.34;110375;1248;60134;-61
2024/01/29 10:21:04;;;;;;;;;;;;;;;12.29;33.93;99355.79;110491;1242;70661;-62
2024/01/29 10:23:34;;;;;;;;;;;;;;;11.32;34.57;99353.47;110423;1241;69111;-63
2024/01/29 10:26:05;;;;;;;;;;;;;;;12.68;33.88;99349.66;110439;1238;69170;-62
2024/01/29 10:28:34;;;;;;;;;;;;;;;13.08;33.76;99356.17;110475;1242;59696;-62
2024/01/29 10:31:04;;;;;;;;;;;;;;;12.84;32.63;99351.79;110335;1242;59713;-62
2024/01/29 10:33:33;;;;;;;;;;;;;;;12.25;32.67;99352.18;110409;1241;71960;-61
2024/01/29 10:36:03;;;;;;;;;;;;;;;12.09;33.11;99357.26;110379;1242;69795;-61
2024/01/29 10:38:34;;;;;;;;;;;;;;;11.64;33.28;99356.18;110412;1238;69092;-61
2024/01/29 10:41:05;;;;;;;;;;;;;;;12.79;33.18;99348.88;110403;1240;59757;-62
2024/01/29 10:43:38;;;;;;;;;;;;;;;13.69;31.85;99349.59;110440;1240;59741;-62
2024/01/29 10:46:08;;;;;;;;;;;;;;;13.21;31.24;99347.23;110507;1242;71893;-62
2024/01/29 10:48:38;;;;;;;;;;;;;;;13.06;30.74;99344.91;110385;1241;68859;-63
2024/01/29 10:51:08;;;;;;;;;;;;;;;12.67;31.25;99342.17;110467;1248;68819;-63
2024/01/29 10:53:37;;;;;;;;;;;;;;;13.97;30.94;99340.88;110389;1248;59805;-62
2024/01/29 10:56:06;;;;;;;;;;;;;;;14.97;31.03;99339.64;110392;1238;60076;-62
2024/01/29 10:58:38;;;;;;;;;;;;;;;15.68;30.43;99337.92;110566;1240;71980;-62
2024/01/29 11:01:09;;;;;;;;;;;;;;;14.15;29.41;99334.17;110267;1242;69787;-62
2024/01/29 11:03:39;;;;;;;;;;;;;;;14.13;29.15;99329.73;110229;1240;69277;-61
2024/01/29 11:06:20;;;;;;;;;;;;;;;13.49;29.88;99327.23;110250;1243;59627;-61
2024/01/29 11:12:41;;;;;;;;;;;;;;;13.45;31.09;99324.95;110404;1238;71205;-61
2024/01/29 11:15:11;;;;;;;;;;;;;;;14.17;30.57;99320.22;109829;1241;720167;-61
2024/01/29 11:17:41;;;;;;;;;;;;;;;15.07;28.99;99319.90;110327;1242;69163;-61
2024/01/29 11:20:12;;;;;;;;;;;;;;;15.19;28.83;99317.73;110394;1241;59660;-63
2024/01/29 11:22:47;;;;;;;;;;;;;;;14.97;29.16;99317.34;110424;1240;59677;-61
2024/01/29 11:25:17;;;;;;;;;;;;;;;15.41;28.14;99316.95;110390;1243;71957;-61
2024/01/29 11:27:48;;;;;;;;;;;;;;;15.42;27.54;99317.56;110356;1240;69126;-63
2024/01/29 11:30:18;;;;;;;;;;;;;;;15.10;29.28;99314.26;110332;1241;69901;-62
2024/01/29 11:32:47;;;;;;;;;;;;;;;15.49;27.80;99315.67;110523;1242;59669;-62
2024/01/29 11:35:21;;;;;;;;;;;;;;;16.12;28.45;99311.33;110400;1241;59658;-62
2024/01/29 11:38:08;;;;;;;;;;;;;;;15.61;27.19;99311.11;110330;1242;70657;-61
2024/01/29 11:40:40;;;;;;;;;;;;;;;16.37;28.23;99307.42;110466;1240;69802;-61
2024/01/29 11:43:14;;;;;;;;;;;;;;;16.29;27.91;99307.60;110363;1241;69307;-63
2024/01/29 11:45:47;;;;;;;;;;;;;;;16.23;27.78;99301.49;110450;1241;59660;-62
2024/01/29 11:48:18;;;;;;;;;;;;;;;17.07;27.93;99302.82;110390;1241;59712;-62
2024/01/29 11:50:49;;;;;;;;;;;;;;;16.98;27.42;99303.30;110432;1241;71463;-62
2024/01/29 11:53:19;;;;;;;;;;;;;;;16.46;26.81;99298.18;110540;1238;68580;-62
2024/01/29 11:55:48;;;;;;;;;;;;;;;15.41;26.68;99294.96;110336;1242;69945;-61
2024/01/29 11:58:21;;;;;;;;;;;;;;;14.57;28.40;99293.95;110400;1242;59737;-61
2024/01/29 12:00:51;;;;;;;;;;;;;;;15.28;28.88;99298.59;110444;1241;59705;-62
2024/01/29 12:03:26;;;;;;;;;;;;;;;15.65;28.60;99301.54;110331;1241;71710;-61
2024/01/29 12:05:55;;;;;;;;;;;;;;;14.95;27.39;99294.89;110407;1239;68707;-61
2024/01/29 12:08:27;;;;;;;;;;;;;;;13.91;28.74;99300.55;110373;1241;70075;-61
2024/01/29 12:11:03;;;;;;;;;;;;;;;13.63;29.78;99299.10;110348;1241;59750;-61
2024/01/29 12:13:32;;;;;;;;;;;;;;;13.68;29.40;99292.92;110364;1241;59738;-62
2024/01/29 12:16:02;;;;;;;;;;;;;;;13.81;29.73;99289.54;110310;1239;71856;-63
2024/01/29 12:18:32;;;;;;;;;;;;;;;12.27;30.16;99292.88;110403;1242;69216;-62
2024/01/29 12:21:01;;;;;;;;;;;;;;;11.87;30.81;99297.01;110364;1242;69287;-62
2024/01/29 12:23:31;;;;;;;;;;;;;;;10.52;32.38;99298.02;110382;1242;59679;-61
2024/01/29 12:26:00;;;;;;;;;;;;;;;9.98;33.68;99299.59;110327;1238;59709;-62
2024/01/29 12:28:30;;;;;;;;;;;;;;;9.54;35.06;99303.05;110375;1241;71466;-62
2024/01/29 12:31:06;;;;;;;;;;;;;;;9.07;35.83;99309.52;110347;1238;69849;-62
2024/01/29 12:33:36;;;;;;;;;;;;;;;8.95;35.60;99311.18;110391;1241;69792;-62
2024/01/29 12:36:12;;;;;;;;;;;;;;;8.44;36.86;99312.95;110550;1238;59737;-62
2024/01/29 12:38:43;;;;;;;;;;;;;;;7.92;37.95;99310.61;110534;1238;59638;-62
2024/01/29 12:41:12;;;;;;;;;;;;;;;7.48;39.13;99313.55;110549;1241;70878;-62
2024/01/29 12:43:41;;;;;;;;;;;;;;;7.39;39.02;99317.13;110590;1241;69091;-62
2024/01/29 12:46:11;;;;;;;;;;;;;;;7.06;40.14;99316.16;110448;1242;69244;-63
2024/01/29 12:48:42;;;;;;;;;;;;;;;6.95;38.91;99315.96;110438;1243;59679;-62
2024/01/29 12:51:12;;;;;;;;;;;;;;;6.66;39.28;99314.83;110574;1241;59662;-62
2024/01/29 12:53:53;;;;;;;;;;;;;;;6.36;39.81;99320.99;110349;1241;71427;-62
2024/01/29 12:56:22;;;;;;;;;;;;;;;6.19;39.31;99319.52;110360;1238;69798;-62